sensor_id;sensor_type;location;lat;lon;timestamp;P1;durP1;ratioP1;P2;durP2;ratioP2
12852;SDS011;6495;51.808;7.478;2023-09-18T00:02:13;5.35;;;4.38;;
12852;SDS011;6495;51.808;7.478;2023-09-18T00:05:00;6.40;;;4.53;;
12852;SDS011;6495;51.808;7.478;2023-09-18T00:07:50;6.25;;;4.43;;
12852;SDS011;6495;51.808;7.478;2023-09-18T00:10:51;7.35;;;4.43;;
12852;SDS011;6495;51.808;7.478;2023-09-18T00:14:12;10.55;;;4.63;;
12852;SDS011;6495;51.808;7.478;2023-09-18T00:17:16;7.47;;;4.13;;
12852;SDS011;6495;51.808;7.478;2023-09-18T00:19:53;5.85;;;4.43;;
12852;SDS011;6495;51.808;7.478;2023-09-18T00:22:46;6.05;;;4.78;;
12852;SDS011;6495;51.808;7.478;2023-09-18T00:25:57;7.03;;;4.50;;
12852;SDS011;6495;51.808;7.478;2023-09-18T00:28:53;4.88;;;3.90;;
12852;SDS011;6495;51.808;7.478;2023-09-18T00:31:38;7.18;;;4.75;;
12852;SDS011;6495;51.808;7.478;2023-09-18T00:34:09;6.38;;;4.85;;
12852;SDS011;6495;51.808;7.478;2023-09-18T00:37:19;6.78;;;4.25;;
12852;SDS011;6495;51.808;7.478;2023-09-18T00:41:08;7.78;;;4.80;;
12852;SDS011;6495;51.808;7.478;2023-09-18T00:44:03;6.97;;;4.75;;
12852;SDS011;6495;51.808;7.478;2023-09-18T00:46:46;8.40;;;4.65;;
12852;SDS011;6495;51.808;7.478;2023-09-18T00:50:12;5.30;;;4.10;;
12852;SDS011;6495;51.808;7.478;2023-09-18T00:53:18;6.22;;;4.10;;
12852;SDS011;6495;51.808;7.478;2023-09-18T01:00:48;5.55;;;4.63;;
12852;SDS011;6495;51.808;7.478;2023-09-18T01:04:32;6.40;;;4.20;;
12852;SDS011;6495;51.808;7.478;2023-09-18T01:07:29;8.27;;;4.60;;
12852;SDS011;6495;51.808;7.478;2023-09-18T01:52:31;5.78;;;4.60;;
12852;SDS011;6495;51.808;7.478;2023-09-18T01:55:28;7.65;;;4.50;;
12852;SDS011;6495;51.808;7.478;2023-09-18T01:58:05;7.40;;;4.70;;
12852;SDS011;6495;51.808;7.478;2023-09-18T02:00:50;6.10;;;4.65;;
12852;SDS011;6495;51.808;7.478;2023-09-18T02:03:50;7.80;;;5.50;;
12852;SDS011;6495;51.808;7.478;2023-09-18T02:07:18;5.95;;;4.50;;
12852;SDS011;6495;51.808;7.478;2023-09-18T02:09:58;6.47;;;4.40;;
12852;SDS011;6495;51.808;7.478;2023-09-18T02:12:52;8.60;;;4.50;;
12852;SDS011;6495;51.808;7.478;2023-09-18T02:15:48;8.02;;;5.03;;
12852;SDS011;6495;51.808;7.478;2023-09-18T02:18:18;6.53;;;4.80;;
12852;SDS011;6495;51.808;7.478;2023-09-18T02:20:47;9.43;;;4.78;;
12852;SDS011;6495;51.808;7.478;2023-09-18T02:23:15;6.95;;;4.50;;
12852;SDS011;6495;51.808;7.478;2023-09-18T02:25:46;5.22;;;4.15;;
12852;SDS011;6495;51.808;7.478;2023-09-18T02:28:22;6.57;;;4.50;;
12852;SDS011;6495;51.808;7.478;2023-09-18T02:30:51;8.70;;;4.78;;
12852;SDS011;6495;51.808;7.478;2023-09-18T02:33:19;6.07;;;4.30;;
12852;SDS011;6495;51.808;7.478;2023-09-18T02:35:47;10.20;;;4.15;;
12852;SDS011;6495;51.808;7.478;2023-09-18T02:38:16;8.23;;;4.57;;
12852;SDS011;6495;51.808;7.478;2023-09-18T02:40:45;7.75;;;4.07;;
12852;SDS011;6495;51.808;7.478;2023-09-18T02:43:13;5.60;;;4.32;;
12852;SDS011;6495;51.808;7.478;2023-09-18T02:45:42;5.25;;;4.28;;
12852;SDS011;6495;51.808;7.478;2023-09-18T02:48:12;7.72;;;4.35;;
12852;SDS011;6495;51.808;7.478;2023-09-18T02:50:40;5.85;;;3.83;;
12852;SDS011;6495;51.808;7.478;2023-09-18T02:53:12;5.70;;;3.92;;
12852;SDS011;6495;51.808;7.478;2023-09-18T02:55:49;8.48;;;4.20;;
12852;SDS011;6495;51.808;7.478;2023-09-18T02:58:19;5.68;;;4.00;;
12852;SDS011;6495;51.808;7.478;2023-09-18T03:00:49;8.13;;;4.72;;
12852;SDS011;6495;51.808;7.478;2023-09-18T03:03:19;6.30;;;3.90;;
12852;SDS011;6495;51.808;7.478;2023-09-18T03:05:47;6.05;;;4.63;;
12852;SDS011;6495;51.808;7.478;2023-09-18T03:08:16;8.32;;;4.45;;
12852;SDS011;6495;51.808;7.478;2023-09-18T03:10:45;7.78;;;3.92;;
12852;SDS011;6495;51.808;7.478;2023-09-18T03:13:15;6.25;;;3.83;;
12852;SDS011;6495;51.808;7.478;2023-09-18T03:15:44;7.07;;;4.43;;
12852;SDS011;6495;51.808;7.478;2023-09-18T03:18:14;4.97;;;4.20;;
12852;SDS011;6495;51.808;7.478;2023-09-18T03:20:42;7.30;;;3.80;;
12852;SDS011;6495;51.808;7.478;2023-09-18T03:23:11;7.20;;;3.95;;
12852;SDS011;6495;51.808;7.478;2023-09-18T03:25:40;6.07;;;3.92;;
12852;SDS011;6495;51.808;7.478;2023-09-18T03:28:18;7.85;;;4.10;;
12852;SDS011;6495;51.808;7.478;2023-09-18T03:30:47;8.95;;;3.97;;
12852;SDS011;6495;51.808;7.478;2023-09-18T03:33:19;5.03;;;4.10;;
12852;SDS011;6495;51.808;7.478;2023-09-18T03:35:48;6.38;;;3.75;;
12852;SDS011;6495;51.808;7.478;2023-09-18T03:38:24;6.93;;;3.58;;
12852;SDS011;6495;51.808;7.478;2023-09-18T03:40:55;7.47;;;3.53;;
12852;SDS011;6495;51.808;7.478;2023-09-18T03:43:28;5.57;;;3.70;;
12852;SDS011;6495;51.808;7.478;2023-09-18T03:46:02;4.55;;;3.63;;
12852;SDS011;6495;51.808;7.478;2023-09-18T03:48:35;4.18;;;3.42;;
12852;SDS011;6495;51.808;7.478;2023-09-18T03:51:04;8.75;;;3.55;;
12852;SDS011;6495;51.808;7.478;2023-09-18T03:53:33;6.50;;;3.92;;
12852;SDS011;6495;51.808;7.478;2023-09-18T03:56:03;4.90;;;3.33;;
12852;SDS011;6495;51.808;7.478;2023-09-18T03:58:32;5.57;;;3.67;;
12852;SDS011;6495;51.808;7.478;2023-09-18T04:01:02;6.38;;;3.72;;
12852;SDS011;6495;51.808;7.478;2023-09-18T04:03:30;11.68;;;3.55;;
12852;SDS011;6495;51.808;7.478;2023-09-18T04:05:59;5.35;;;3.63;;
12852;SDS011;6495;51.808;7.478;2023-09-18T04:08:28;4.25;;;3.45;;
12852;SDS011;6495;51.808;7.478;2023-09-18T04:10:59;5.63;;;3.40;;
12852;SDS011;6495;51.808;7.478;2023-09-18T04:13:30;3.97;;;3.45;;
12852;SDS011;6495;51.808;7.478;2023-09-18T04:16:00;4.07;;;2.83;;
12852;SDS011;6495;51.808;7.478;2023-09-18T04:18:30;4.07;;;2.75;;
12852;SDS011;6495;51.808;7.478;2023-09-18T04:20:59;4.47;;;3.20;;
12852;SDS011;6495;51.808;7.478;2023-09-18T04:23:27;4.53;;;3.00;;
12852;SDS011;6495;51.808;7.478;2023-09-18T04:25:59;3.90;;;3.00;;
12852;SDS011;6495;51.808;7.478;2023-09-18T04:28:28;3.85;;;3.00;;
12852;SDS011;6495;51.808;7.478;2023-09-18T04:31:05;6.05;;;3.20;;
12852;SDS011;6495;51.808;7.478;2023-09-18T04:33:39;3.95;;;3.22;;
12852;SDS011;6495;51.808;7.478;2023-09-18T04:36:28;4.45;;;3.15;;
12852;SDS011;6495;51.808;7.478;2023-09-18T04:39:14;4.82;;;3.22;;
12852;SDS011;6495;51.808;7.478;2023-09-18T04:42:02;4.45;;;2.65;;
12852;SDS011;6495;51.808;7.478;2023-09-18T04:44:33;6.18;;;2.85;;
12852;SDS011;6495;51.808;7.478;2023-09-18T04:47:40;4.68;;;2.97;;
12852;SDS011;6495;51.808;7.478;2023-09-18T04:50:09;5.13;;;2.72;;
12852;SDS011;6495;51.808;7.478;2023-09-18T04:52:40;3.92;;;3.00;;
12852;SDS011;6495;51.808;7.478;2023-09-18T04:55:13;5.75;;;3.58;;
12852;SDS011;6495;51.808;7.478;2023-09-18T04:57:41;6.03;;;2.90;;
12852;SDS011;6495;51.808;7.478;2023-09-18T05:00:10;4.07;;;2.47;;
12852;SDS011;6495;51.808;7.478;2023-09-18T05:02:45;6.55;;;2.58;;
12852;SDS011;6495;51.808;7.478;2023-09-18T05:05:14;7.55;;;2.63;;
12852;SDS011;6495;51.808;7.478;2023-09-18T05:07:42;6.07;;;2.97;;
12852;SDS011;6495;51.808;7.478;2023-09-18T05:10:11;4.38;;;2.53;;
12852;SDS011;6495;51.808;7.478;2023-09-18T05:12:39;6.63;;;2.83;;
12852;SDS011;6495;51.808;7.478;2023-09-18T05:15:08;4.82;;;2.97;;
12852;SDS011;6495;51.808;7.478;2023-09-18T05:17:39;4.97;;;2.38;;
12852;SDS011;6495;51.808;7.478;2023-09-18T05:20:12;6.20;;;2.92;;
12852;SDS011;6495;51.808;7.478;2023-09-18T05:22:43;7.00;;;2.90;;
12852;SDS011;6495;51.808;7.478;2023-09-18T05:25:12;7.32;;;2.70;;
12852;SDS011;6495;51.808;7.478;2023-09-18T05:27:42;5.28;;;2.72;;
12852;SDS011;6495;51.808;7.478;2023-09-18T05:30:12;6.95;;;2.88;;
12852;SDS011;6495;51.808;7.478;2023-09-18T05:32:43;6.82;;;2.70;;
12852;SDS011;6495;51.808;7.478;2023-09-18T05:35:13;4.70;;;2.63;;
12852;SDS011;6495;51.808;7.478;2023-09-18T05:37:43;5.22;;;2.90;;
12852;SDS011;6495;51.808;7.478;2023-09-18T05:40:12;4.95;;;2.78;;
12852;SDS011;6495;51.808;7.478;2023-09-18T05:42:41;5.18;;;2.50;;
12852;SDS011;6495;51.808;7.478;2023-09-18T05:45:12;6.13;;;2.50;;
12852;SDS011;6495;51.808;7.478;2023-09-18T05:47:42;6.20;;;2.75;;
12852;SDS011;6495;51.808;7.478;2023-09-18T05:50:11;5.63;;;2.40;;
12852;SDS011;6495;51.808;7.478;2023-09-18T05:52:43;5.15;;;2.53;;
12852;SDS011;6495;51.808;7.478;2023-09-18T05:55:13;3.30;;;2.15;;
12852;SDS011;6495;51.808;7.478;2023-09-18T05:57:42;6.88;;;2.70;;
12852;SDS011;6495;51.808;7.478;2023-09-18T06:00:11;10.55;;;3.10;;
12852;SDS011;6495;51.808;7.478;2023-09-18T06:02:40;4.05;;;2.47;;
12852;SDS011;6495;51.808;7.478;2023-09-18T06:05:10;4.10;;;2.38;;
12852;SDS011;6495;51.808;7.478;2023-09-18T06:07:40;3.75;;;2.60;;
12852;SDS011;6495;51.808;7.478;2023-09-18T06:10:08;6.35;;;2.33;;
12852;SDS011;6495;51.808;7.478;2023-09-18T06:12:38;5.68;;;2.60;;
12852;SDS011;6495;51.808;7.478;2023-09-18T06:15:06;5.68;;;2.67;;
12852;SDS011;6495;51.808;7.478;2023-09-18T06:17:36;8.18;;;2.90;;
12852;SDS011;6495;51.808;7.478;2023-09-18T06:20:06;6.90;;;2.22;;
12852;SDS011;6495;51.808;7.478;2023-09-18T06:22:37;7.10;;;2.88;;
12852;SDS011;6495;51.808;7.478;2023-09-18T06:25:08;3.63;;;2.05;;
12852;SDS011;6495;51.808;7.478;2023-09-18T06:27:37;5.90;;;2.58;;
12852;SDS011;6495;51.808;7.478;2023-09-18T06:30:06;9.18;;;2.47;;
12852;SDS011;6495;51.808;7.478;2023-09-18T06:32:35;6.00;;;2.55;;
12852;SDS011;6495;51.808;7.478;2023-09-18T06:35:04;5.38;;;2.75;;
12852;SDS011;6495;51.808;7.478;2023-09-18T06:37:34;8.27;;;2.78;;
12852;SDS011;6495;51.808;7.478;2023-09-18T06:40:03;5.80;;;2.35;;
12852;SDS011;6495;51.808;7.478;2023-09-18T06:42:33;7.15;;;2.42;;
12852;SDS011;6495;51.808;7.478;2023-09-18T06:45:02;5.38;;;2.53;;
12852;SDS011;6495;51.808;7.478;2023-09-18T06:47:33;6.03;;;2.75;;
12852;SDS011;6495;51.808;7.478;2023-09-18T06:50:01;5.95;;;2.33;;
12852;SDS011;6495;51.808;7.478;2023-09-18T06:52:32;11.00;;;2.50;;
12852;SDS011;6495;51.808;7.478;2023-09-18T06:55:00;6.22;;;2.42;;
12852;SDS011;6495;51.808;7.478;2023-09-18T06:57:30;4.30;;;2.70;;
12852;SDS011;6495;51.808;7.478;2023-09-18T06:59:58;6.50;;;2.50;;
12852;SDS011;6495;51.808;7.478;2023-09-18T07:02:26;5.13;;;2.38;;
12852;SDS011;6495;51.808;7.478;2023-09-18T07:04:55;6.15;;;2.72;;
12852;SDS011;6495;51.808;7.478;2023-09-18T07:07:24;5.47;;;2.70;;
12852;SDS011;6495;51.808;7.478;2023-09-18T07:09:52;8.20;;;2.58;;
12852;SDS011;6495;51.808;7.478;2023-09-18T07:12:23;6.80;;;2.33;;
12852;SDS011;6495;51.808;7.478;2023-09-18T07:14:53;5.10;;;2.45;;
12852;SDS011;6495;51.808;7.478;2023-09-18T07:17:21;6.97;;;2.35;;
12852;SDS011;6495;51.808;7.478;2023-09-18T07:19:49;6.15;;;2.50;;
12852;SDS011;6495;51.808;7.478;2023-09-18T07:22:18;5.63;;;2.35;;
12852;SDS011;6495;51.808;7.478;2023-09-18T07:24:46;3.70;;;1.63;;
12852;SDS011;6495;51.808;7.478;2023-09-18T07:27:14;8.48;;;2.22;;
12852;SDS011;6495;51.808;7.478;2023-09-18T07:29:42;5.80;;;2.28;;
12852;SDS011;6495;51.808;7.478;2023-09-18T07:32:12;9.45;;;2.17;;
12852;SDS011;6495;51.808;7.478;2023-09-18T07:34:55;5.28;;;2.28;;
12852;SDS011;6495;51.808;7.478;2023-09-18T07:37:23;4.70;;;2.03;;
12852;SDS011;6495;51.808;7.478;2023-09-18T07:39:52;3.97;;;1.90;;
12852;SDS011;6495;51.808;7.478;2023-09-18T07:42:21;8.85;;;2.28;;
12852;SDS011;6495;51.808;7.478;2023-09-18T07:44:52;4.75;;;2.28;;
12852;SDS011;6495;51.808;7.478;2023-09-18T07:47:26;6.80;;;2.05;;
12852;SDS011;6495;51.808;7.478;2023-09-18T07:49:55;5.90;;;1.98;;
12852;SDS011;6495;51.808;7.478;2023-09-18T07:52:24;6.18;;;2.05;;
12852;SDS011;6495;51.808;7.478;2023-09-18T07:54:52;2.92;;;1.90;;
12852;SDS011;6495;51.808;7.478;2023-09-18T07:57:20;4.03;;;1.80;;
12852;SDS011;6495;51.808;7.478;2023-09-18T07:59:50;5.07;;;1.70;;
12852;SDS011;6495;51.808;7.478;2023-09-18T08:02:19;3.67;;;1.83;;
12852;SDS011;6495;51.808;7.478;2023-09-18T08:04:49;5.25;;;1.70;;
12852;SDS011;6495;51.808;7.478;2023-09-18T08:07:20;5.47;;;1.90;;
12852;SDS011;6495;51.808;7.478;2023-09-18T08:09:48;3.22;;;1.80;;
12852;SDS011;6495;51.808;7.478;2023-09-18T08:12:17;5.07;;;1.83;;
12852;SDS011;6495;51.808;7.478;2023-09-18T08:14:46;3.50;;;1.77;;
12852;SDS011;6495;51.808;7.478;2023-09-18T08:17:15;3.33;;;1.70;;
12852;SDS011;6495;51.808;7.478;2023-09-18T08:19:44;2.85;;;1.38;;
12852;SDS011;6495;51.808;7.478;2023-09-18T08:22:13;6.95;;;1.80;;
12852;SDS011;6495;51.808;7.478;2023-09-18T08:24:43;2.22;;;1.70;;
12852;SDS011;6495;51.808;7.478;2023-09-18T08:27:13;7.75;;;1.80;;
12852;SDS011;6495;51.808;7.478;2023-09-18T08:29:43;4.35;;;1.83;;
12852;SDS011;6495;51.808;7.478;2023-09-18T08:32:11;5.22;;;1.80;;
12852;SDS011;6495;51.808;7.478;2023-09-18T08:34:39;2.38;;;1.60;;
12852;SDS011;6495;51.808;7.478;2023-09-18T08:37:07;3.88;;;1.70;;
12852;SDS011;6495;51.808;7.478;2023-09-18T08:39:37;2.65;;;1.63;;
12852;SDS011;6495;51.808;7.478;2023-09-18T08:42:07;2.45;;;1.60;;
12852;SDS011;6495;51.808;7.478;2023-09-18T08:44:38;5.00;;;1.50;;
12852;SDS011;6495;51.808;7.478;2023-09-18T08:47:08;2.17;;;1.38;;
12852;SDS011;6495;51.808;7.478;2023-09-18T08:49:38;5.90;;;1.60;;
12852;SDS011;6495;51.808;7.478;2023-09-18T08:52:09;4.22;;;1.60;;
12852;SDS011;6495;51.808;7.478;2023-09-18T08:54:40;2.20;;;1.50;;
12852;SDS011;6495;51.808;7.478;2023-09-18T08:57:10;2.83;;;1.63;;
12852;SDS011;6495;51.808;7.478;2023-09-18T08:59:39;3.45;;;1.48;;
12852;SDS011;6495;51.808;7.478;2023-09-18T09:02:08;3.22;;;1.73;;
12852;SDS011;6495;51.808;7.478;2023-09-18T09:04:38;4.50;;;1.73;;
12852;SDS011;6495;51.808;7.478;2023-09-18T09:07:07;2.08;;;1.50;;
12852;SDS011;6495;51.808;7.478;2023-09-18T09:09:36;4.15;;;1.83;;
12852;SDS011;6495;51.808;7.478;2023-09-18T09:12:06;3.63;;;1.45;;
12852;SDS011;6495;51.808;7.478;2023-09-18T09:14:35;2.97;;;1.67;;
12852;SDS011;6495;51.808;7.478;2023-09-18T09:17:05;2.28;;;1.85;;
12852;SDS011;6495;51.808;7.478;2023-09-18T09:19:34;2.92;;;1.60;;
12852;SDS011;6495;51.808;7.478;2023-09-18T09:22:10;2.42;;;1.48;;
12852;SDS011;6495;51.808;7.478;2023-09-18T09:24:48;2.70;;;1.50;;
12852;SDS011;6495;51.808;7.478;2023-09-18T09:27:18;4.22;;;1.58;;
12852;SDS011;6495;51.808;7.478;2023-09-18T09:29:57;2.83;;;1.55;;
12852;SDS011;6495;51.808;7.478;2023-09-18T09:32:27;4.82;;;1.60;;
12852;SDS011;6495;51.808;7.478;2023-09-18T09:34:59;3.53;;;1.58;;
12852;SDS011;6495;51.808;7.478;2023-09-18T09:37:31;3.00;;;1.70;;
12852;SDS011;6495;51.808;7.478;2023-09-18T09:40:03;3.20;;;1.50;;
12852;SDS011;6495;51.808;7.478;2023-09-18T09:42:39;2.33;;;1.60;;
12852;SDS011;6495;51.808;7.478;2023-09-18T09:45:10;3.20;;;1.58;;
12852;SDS011;6495;51.808;7.478;2023-09-18T09:47:42;4.65;;;1.70;;
12852;SDS011;6495;51.808;7.478;2023-09-18T09:50:12;4.00;;;1.55;;
12852;SDS011;6495;51.808;7.478;2023-09-18T09:52:46;2.15;;;1.45;;
12852;SDS011;6495;51.808;7.478;2023-09-18T09:55:19;3.88;;;1.45;;
12852;SDS011;6495;51.808;7.478;2023-09-18T09:57:53;2.15;;;1.67;;
12852;SDS011;6495;51.808;7.478;2023-09-18T10:00:25;2.70;;;1.50;;
12852;SDS011;6495;51.808;7.478;2023-09-18T10:03:03;3.50;;;1.38;;
12852;SDS011;6495;51.808;7.478;2023-09-18T10:05:36;2.70;;;1.65;;
12852;SDS011;6495;51.808;7.478;2023-09-18T10:08:08;4.00;;;1.50;;
12852;SDS011;6495;51.808;7.478;2023-09-18T10:10:41;3.00;;;1.33;;
12852;SDS011;6495;51.808;7.478;2023-09-18T10:13:17;4.38;;;1.58;;
12852;SDS011;6495;51.808;7.478;2023-09-18T10:15:50;1.95;;;1.17;;
12852;SDS011;6495;51.808;7.478;2023-09-18T10:18:22;2.65;;;1.45;;
12852;SDS011;6495;51.808;7.478;2023-09-18T10:20:56;1.83;;;1.40;;
12852;SDS011;6495;51.808;7.478;2023-09-18T10:23:46;1.60;;;1.17;;
12852;SDS011;6495;51.808;7.478;2023-09-18T10:26:40;4.97;;;1.25;;
12852;SDS011;6495;51.808;7.478;2023-09-18T10:29:19;1.60;;;1.10;;
12852;SDS011;6495;51.808;7.478;2023-09-18T10:32:01;3.30;;;1.27;;
12852;SDS011;6495;51.808;7.478;2023-09-18T10:34:32;2.10;;;1.30;;
12852;SDS011;6495;51.808;7.478;2023-09-18T10:37:03;1.95;;;1.20;;
12852;SDS011;6495;51.808;7.478;2023-09-18T10:39:34;1.58;;;1.13;;
12852;SDS011;6495;51.808;7.478;2023-09-18T10:42:04;3.10;;;1.13;;
12852;SDS011;6495;51.808;7.478;2023-09-18T10:44:37;2.67;;;1.40;;
12852;SDS011;6495;51.808;7.478;2023-09-18T10:47:07;1.60;;;1.23;;
12852;SDS011;6495;51.808;7.478;2023-09-18T10:49:38;1.23;;;1.00;;
12852;SDS011;6495;51.808;7.478;2023-09-18T10:52:10;3.92;;;1.40;;
12852;SDS011;6495;51.808;7.478;2023-09-18T10:54:39;2.10;;;1.10;;
12852;SDS011;6495;51.808;7.478;2023-09-18T10:57:08;3.97;;;1.50;;
12852;SDS011;6495;51.808;7.478;2023-09-18T10:59:44;1.80;;;1.15;;
12852;SDS011;6495;51.808;7.478;2023-09-18T11:02:16;2.53;;;1.30;;
12852;SDS011;6495;51.808;7.478;2023-09-18T11:04:45;1.38;;;1.10;;
12852;SDS011;6495;51.808;7.478;2023-09-18T11:07:19;11.88;;;1.70;;
12852;SDS011;6495;51.808;7.478;2023-09-18T11:09:51;2.22;;;1.48;;
12852;SDS011;6495;51.808;7.478;2023-09-18T11:12:20;5.35;;;1.40;;
12852;SDS011;6495;51.808;7.478;2023-09-18T11:15:26;0.98;;;0.98;;
12852;SDS011;6495;51.808;7.478;2023-09-18T11:17:59;1.58;;;1.20;;
12852;SDS011;6495;51.808;7.478;2023-09-18T11:20:34;2.85;;;1.23;;
12852;SDS011;6495;51.808;7.478;2023-09-18T11:23:09;3.75;;;1.70;;
12852;SDS011;6495;51.808;7.478;2023-09-18T11:25:45;1.60;;;1.40;;
12852;SDS011;6495;51.808;7.478;2023-09-18T11:28:14;3.97;;;1.30;;
12852;SDS011;6495;51.808;7.478;2023-09-18T11:30:52;2.08;;;1.30;;
12852;SDS011;6495;51.808;7.478;2023-09-18T11:33:32;2.38;;;1.25;;
12852;SDS011;6495;51.808;7.478;2023-09-18T11:36:05;3.33;;;1.35;;
12852;SDS011;6495;51.808;7.478;2023-09-18T11:38:50;2.97;;;1.50;;
12852;SDS011;6495;51.808;7.478;2023-09-18T11:41:24;2.85;;;1.50;;
12852;SDS011;6495;51.808;7.478;2023-09-18T11:47:10;6.13;;;1.60;;
12852;SDS011;6495;51.808;7.478;2023-09-18T11:49:46;5.28;;;1.35;;
12852;SDS011;6495;51.808;7.478;2023-09-18T11:52:22;2.90;;;1.52;;
12852;SDS011;6495;51.808;7.478;2023-09-18T11:54:53;1.40;;;1.27;;
12852;SDS011;6495;51.808;7.478;2023-09-18T11:57:24;4.43;;;1.33;;
12852;SDS011;6495;51.808;7.478;2023-09-18T11:59:57;2.47;;;1.50;;
12852;SDS011;6495;51.808;7.478;2023-09-18T12:02:39;3.25;;;1.50;;
12852;SDS011;6495;51.808;7.478;2023-09-18T12:05:13;2.70;;;1.50;;
12852;SDS011;6495;51.808;7.478;2023-09-18T12:07:55;2.38;;;1.38;;
12852;SDS011;6495;51.808;7.478;2023-09-18T12:10:25;3.05;;;1.40;;
12852;SDS011;6495;51.808;7.478;2023-09-18T12:12:55;3.50;;;1.58;;
12852;SDS011;6495;51.808;7.478;2023-09-18T12:15:24;2.88;;;1.60;;
12852;SDS011;6495;51.808;7.478;2023-09-18T12:17:54;1.50;;;1.20;;
12852;SDS011;6495;51.808;7.478;2023-09-18T12:20:26;3.15;;;1.70;;
12852;SDS011;6495;51.808;7.478;2023-09-18T12:22:55;4.10;;;1.45;;
12852;SDS011;6495;51.808;7.478;2023-09-18T12:25:23;2.65;;;1.35;;
12852;SDS011;6495;51.808;7.478;2023-09-18T12:27:52;2.03;;;1.27;;
12852;SDS011;6495;51.808;7.478;2023-09-18T12:30:22;3.72;;;1.45;;
12852;SDS011;6495;51.808;7.478;2023-09-18T12:32:52;2.28;;;1.27;;
12852;SDS011;6495;51.808;7.478;2023-09-18T12:35:32;2.45;;;1.30;;
12852;SDS011;6495;51.808;7.478;2023-09-18T12:38:02;2.08;;;1.38;;
12852;SDS011;6495;51.808;7.478;2023-09-18T12:40:48;2.35;;;1.50;;
12852;SDS011;6495;51.808;7.478;2023-09-18T12:43:19;2.95;;;1.60;;
12852;SDS011;6495;51.808;7.478;2023-09-18T12:45:50;2.80;;;1.30;;
12852;SDS011;6495;51.808;7.478;2023-09-18T12:48:25;2.83;;;1.35;;
12852;SDS011;6495;51.808;7.478;2023-09-18T12:50:54;2.75;;;1.48;;
12852;SDS011;6495;51.808;7.478;2023-09-18T12:53:25;2.35;;;1.42;;
12852;SDS011;6495;51.808;7.478;2023-09-18T12:55:54;2.97;;;1.25;;
12852;SDS011;6495;51.808;7.478;2023-09-18T12:58:32;2.22;;;1.40;;
12852;SDS011;6495;51.808;7.478;2023-09-18T13:01:21;2.65;;;1.42;;
12852;SDS011;6495;51.808;7.478;2023-09-18T13:03:53;1.70;;;1.30;;
12852;SDS011;6495;51.808;7.478;2023-09-18T13:06:23;3.17;;;1.50;;
12852;SDS011;6495;51.808;7.478;2023-09-18T13:08:51;2.35;;;1.63;;
12852;SDS011;6495;51.808;7.478;2023-09-18T13:11:20;1.52;;;1.40;;
12852;SDS011;6495;51.808;7.478;2023-09-18T13:13:56;1.95;;;1.35;;
12852;SDS011;6495;51.808;7.478;2023-09-18T13:16:26;5.22;;;1.67;;
12852;SDS011;6495;51.808;7.478;2023-09-18T13:18:58;2.72;;;1.30;;
12852;SDS011;6495;51.808;7.478;2023-09-18T13:21:31;1.80;;;1.35;;
12852;SDS011;6495;51.808;7.478;2023-09-18T13:24:05;1.60;;;1.48;;
12852;SDS011;6495;51.808;7.478;2023-09-18T13:26:38;3.22;;;1.60;;
12852;SDS011;6495;51.808;7.478;2023-09-18T13:29:08;1.55;;;1.35;;
12852;SDS011;6495;51.808;7.478;2023-09-18T13:31:39;2.63;;;1.30;;
12852;SDS011;6495;51.808;7.478;2023-09-18T13:34:09;1.90;;;1.40;;
12852;SDS011;6495;51.808;7.478;2023-09-18T13:36:39;1.52;;;1.30;;
12852;SDS011;6495;51.808;7.478;2023-09-18T13:39:08;2.90;;;1.50;;
12852;SDS011;6495;51.808;7.478;2023-09-18T13:41:37;2.22;;;1.65;;
12852;SDS011;6495;51.808;7.478;2023-09-18T13:44:07;2.42;;;1.50;;
12852;SDS011;6495;51.808;7.478;2023-09-18T13:46:36;1.75;;;1.48;;
12852;SDS011;6495;51.808;7.478;2023-09-18T13:49:07;3.30;;;1.63;;
12852;SDS011;6495;51.808;7.478;2023-09-18T13:52:01;3.00;;;1.60;;
12852;SDS011;6495;51.808;7.478;2023-09-18T13:54:41;1.67;;;1.50;;
12852;SDS011;6495;51.808;7.478;2023-09-18T13:57:17;4.68;;;1.58;;
12852;SDS011;6495;51.808;7.478;2023-09-18T13:59:47;1.60;;;1.40;;
12852;SDS011;6495;51.808;7.478;2023-09-18T14:02:17;3.35;;;1.90;;
12852;SDS011;6495;51.808;7.478;2023-09-18T14:04:50;2.20;;;1.60;;
12852;SDS011;6495;51.808;7.478;2023-09-18T14:07:19;3.40;;;1.52;;
12852;SDS011;6495;51.808;7.478;2023-09-18T14:09:48;1.63;;;1.52;;
12852;SDS011;6495;51.808;7.478;2023-09-18T14:12:16;2.95;;;1.58;;
12852;SDS011;6495;51.808;7.478;2023-09-18T14:17:41;2.55;;;1.35;;
12852;SDS011;6495;51.808;7.478;2023-09-18T14:20:11;2.63;;;1.50;;
12852;SDS011;6495;51.808;7.478;2023-09-18T14:22:52;1.92;;;1.55;;
12852;SDS011;6495;51.808;7.478;2023-09-18T14:25:20;2.97;;;1.40;;
12852;SDS011;6495;51.808;7.478;2023-09-18T14:27:49;1.25;;;1.13;;
12852;SDS011;6495;51.808;7.478;2023-09-18T14:30:18;1.83;;;1.40;;
12852;SDS011;6495;51.808;7.478;2023-09-18T14:32:46;2.30;;;1.30;;
12852;SDS011;6495;51.808;7.478;2023-09-18T14:35:19;2.28;;;1.40;;
12852;SDS011;6495;51.808;7.478;2023-09-18T14:37:47;1.58;;;1.48;;
12852;SDS011;6495;51.808;7.478;2023-09-18T14:40:15;1.73;;;1.17;;
12852;SDS011;6495;51.808;7.478;2023-09-18T14:42:44;2.22;;;1.52;;
12852;SDS011;6495;51.808;7.478;2023-09-18T14:45:21;1.70;;;1.35;;
12852;SDS011;6495;51.808;7.478;2023-09-18T14:48:02;2.60;;;1.52;;
12852;SDS011;6495;51.808;7.478;2023-09-18T14:50:32;2.85;;;1.60;;
12852;SDS011;6495;51.808;7.478;2023-09-18T14:53:01;2.20;;;1.20;;
12852;SDS011;6495;51.808;7.478;2023-09-18T14:55:30;1.67;;;1.30;;
12852;SDS011;6495;51.808;7.478;2023-09-18T14:57:58;1.70;;;1.40;;
12852;SDS011;6495;51.808;7.478;2023-09-18T15:00:27;2.80;;;1.35;;
12852;SDS011;6495;51.808;7.478;2023-09-18T15:02:55;2.00;;;1.42;;
12852;SDS011;6495;51.808;7.478;2023-09-18T15:05:26;2.65;;;1.38;;
12852;SDS011;6495;51.808;7.478;2023-09-18T15:07:56;2.65;;;1.33;;
12852;SDS011;6495;51.808;7.478;2023-09-18T15:10:24;6.45;;;1.50;;
12852;SDS011;6495;51.808;7.478;2023-09-18T15:12:54;2.45;;;1.40;;
12852;SDS011;6495;51.808;7.478;2023-09-18T15:15:22;3.08;;;1.40;;
12852;SDS011;6495;51.808;7.478;2023-09-18T15:17:50;3.33;;;1.35;;
12852;SDS011;6495;51.808;7.478;2023-09-18T15:20:19;2.38;;;1.45;;
12852;SDS011;6495;51.808;7.478;2023-09-18T15:22:50;2.97;;;1.33;;
12852;SDS011;6495;51.808;7.478;2023-09-18T15:25:19;2.53;;;1.20;;
12852;SDS011;6495;51.808;7.478;2023-09-18T15:27:48;1.60;;;1.23;;
12852;SDS011;6495;51.808;7.478;2023-09-18T15:30:16;2.75;;;1.67;;
12852;SDS011;6495;51.808;7.478;2023-09-18T15:32:47;4.68;;;1.60;;
12852;SDS011;6495;51.808;7.478;2023-09-18T15:35:20;2.10;;;1.55;;
12852;SDS011;6495;51.808;7.478;2023-09-18T15:37:49;2.83;;;1.50;;
12852;SDS011;6495;51.808;7.478;2023-09-18T15:40:20;1.77;;;1.38;;
12852;SDS011;6495;51.808;7.478;2023-09-18T15:42:49;3.75;;;1.40;;
12852;SDS011;6495;51.808;7.478;2023-09-18T15:45:18;2.35;;;1.45;;
12852;SDS011;6495;51.808;7.478;2023-09-18T15:47:46;1.92;;;1.50;;
12852;SDS011;6495;51.808;7.478;2023-09-18T15:50:14;1.35;;;1.20;;
12852;SDS011;6495;51.808;7.478;2023-09-18T15:52:43;2.38;;;1.30;;
12852;SDS011;6495;51.808;7.478;2023-09-18T15:55:11;1.35;;;1.25;;
12852;SDS011;6495;51.808;7.478;2023-09-18T15:57:41;3.95;;;1.40;;
12852;SDS011;6495;51.808;7.478;2023-09-18T16:00:10;1.70;;;1.40;;
12852;SDS011;6495;51.808;7.478;2023-09-18T16:02:44;1.85;;;1.30;;
12852;SDS011;6495;51.808;7.478;2023-09-18T16:05:15;2.33;;;1.25;;
12852;SDS011;6495;51.808;7.478;2023-09-18T16:07:45;3.75;;;1.40;;
12852;SDS011;6495;51.808;7.478;2023-09-18T16:10:14;2.13;;;1.30;;
12852;SDS011;6495;51.808;7.478;2023-09-18T16:12:44;1.70;;;1.40;;
12852;SDS011;6495;51.808;7.478;2023-09-18T16:15:13;1.77;;;1.33;;
12852;SDS011;6495;51.808;7.478;2023-09-18T16:17:41;1.85;;;1.48;;
12852;SDS011;6495;51.808;7.478;2023-09-18T16:20:57;3.33;;;1.60;;
12852;SDS011;6495;51.808;7.478;2023-09-18T16:23:26;1.42;;;1.30;;
12852;SDS011;6495;51.808;7.478;2023-09-18T16:25:56;2.40;;;1.20;;
12852;SDS011;6495;51.808;7.478;2023-09-18T16:28:27;5.93;;;1.40;;
12852;SDS011;6495;51.808;7.478;2023-09-18T16:30:55;3.25;;;1.30;;
12852;SDS011;6495;51.808;7.478;2023-09-18T16:33:35;5.28;;;1.45;;